Camp Wood, TX (78833)

5:51 AM CDT on September 25, 2016 (GMT -0500)
Boone Ranch | | Change Station
Active Advisory: Flash Flood Watch

Elev 1490 ft 29.70 °N, 100.04 °W | Updated 14 seconds ago

Overcast
Overcast
68.9 °F
Feels Like 68.9 °F
N
0.0
Wind Variable Wind from WSW
Gusts 0.0 mph

Today
High -- | Low -- °F
--% Chance of Precip.
Yesterday
High -- | Low -- °F
Precip. -- in
Pressure 30.01 in
Visibility 10.0 miles
Clouds Few 100 ft
Overcast 1300 ft
Dew Point 68 °F
Humidity 98%
Rainfall 0.25 in
Snow Depth Not available.
7:30 AM 7:32 PM
Waning Crescent, 29% visible
METAR KECU 251035Z AUTO 36004KT 10SM FEW001 OVC013 19/19 A3001 RMK AO2
Pressure 30.01 in
Visibility 10.0 miles
Clouds Few 100 ft
Overcast 1300 ft
Dew Point 68 °F
Humidity 98%
Rainfall 0.25 in
Snow Depth Not available.
7:30 AM 7:32 PM
Waning Crescent, 29% visible
METAR KECU 251035Z AUTO 36004KT 10SM FEW001 OVC013 19/19 A3001 RMK AO2

10-Day Weather Forecast

Almanac

Astronomy

Sep. 25, 2016 Rise Set
Actual Time
Civil Twilight
Nautical Twilight
Astronomical Twilight
Moon
Length of Visible Light
Length of Day
Tomorrow will be .
, % of the Moon is Illuminated

Today's Extremes

State Highs State Lows

Community

WunderPhotos

Upload Photos

1,941,570 photos uploaded!

WunderBlog® & News

Nearby

Air Quality

  Air Quality AQ Index Pollutant
Not available.

Snow Depth

Station Depth Elevation

Earthquake Activity

City Distance Mag. Time & Date
Minimum magnitude displayed is 2.5.

Coastal Water Temperatures

Place Temperature

Stations

Nearby Weather Stations

Station Location Temp. Windchill Dew Point Humidity Wind Precip. Elev Updated Type
                   

Watches & Warnings

Flash Flood Watch
Issued: 3:22 AM CDT Sep. 25, 2016 – National Weather Service

... Flash Flood Watch in effect through Monday morning...

The National Weather Service in Austin/San Antonio has issued a

* Flash Flood Watch for a portion of south central Texas...
including the following areas... Edwards... Kinney... real...
Uvalde and Val Verde.

* Through Monday morning

* widespread rain is expected to continue through Monday morning
leading to an additional 2-5 inches of rain with isolated higher
amounts. This rain on top of wet soils from earlier rainfall
will lead to a flash flood threat.

* Small streams and creeks could experience flooding and result
in flooded low water crossings. Never drive across a Road
covered in water. Turn around... don't drown.

Precautionary/preparedness actions...

A Flash Flood Watch means that conditions may develop that lead
to flash flooding. Flash flooding is a very dangerous situation.

You should monitor later forecasts and be prepared to take action
should flash flood warnings be issued.